Time;durP1;ratioP1;P1;durP2;ratioP2;P2;SDS_P1;SDS_P2;PMS_P1;PMS_P2;Temp;Humidity;BMP_temperature;BMP_pressure;BME280_temperature;BME280_humidity;BME280_pressure;Samples;Min_cycle;Max_cycle;Signal;HPM_P1;HPM_P2
2023/12/20 00:02:02;;;;;;;14.20;13.70;;;8.00;99.90;;;;;;5143810;27;20201;-63
2023/12/20 00:04:29;;;;;;;14.10;13.60;;;8.00;99.90;;;;;;5132662;28;20198;-63
2023/12/20 00:06:55;;;;;;;12.70;12.30;;;8.00;99.90;;;;;;5120320;27;20198;-65
2023/12/20 00:09:22;;;;;;;14.10;13.60;;;7.90;99.90;;;;;;5124525;27;20714;-64
2023/12/20 00:11:49;;;;;;;14.17;13.67;;;7.90;99.90;;;;;;5125300;27;20202;-64
2023/12/20 00:14:17;;;;;;;14.63;14.13;;;7.90;99.90;;;;;;5130408;27;20201;-61
2023/12/20 00:16:43;;;;;;;11.97;11.57;;;7.90;99.90;;;;;;5131638;27;20225;-63
2023/12/20 00:19:10;;;;;;;13.13;12.67;;;7.90;99.90;;;;;;5129349;27;20236;-61
2023/12/20 00:21:37;;;;;;;12.73;12.33;;;8.00;99.90;;;;;;5130437;27;20197;-64
2023/12/20 00:24:04;;;;;;;11.97;11.57;;;8.00;99.90;;;;;;5128022;27;20219;-64
2023/12/20 00:26:31;;;;;;;13.93;13.43;;;8.00;99.90;;;;;;5130955;27;20198;-64
2023/12/20 00:28:58;;;;;;;15.63;15.13;;;8.00;99.90;;;;;;5129784;27;20305;-61
2023/12/20 00:31:26;;;;;;;14.70;14.20;;;8.00;99.90;;;;;;5129805;27;20678;-63
2023/12/20 00:33:53;;;;;;;15.00;14.50;;;7.90;99.90;;;;;;5131816;27;20201;-63
2023/12/20 00:36:19;;;;;;;14.40;13.90;;;7.80;99.90;;;;;;5130344;27;20225;-63
2023/12/20 00:38:46;;;;;;;14.27;13.77;;;7.80;99.90;;;;;;5131027;27;20307;-62
2023/12/20 00:41:13;;;;;;;15.40;14.90;;;7.90;99.90;;;;;;5121823;27;20565;-62
2023/12/20 00:43:39;;;;;;;14.63;14.13;;;7.90;99.90;;;;;;5132418;27;20209;-64
2023/12/20 00:46:06;;;;;;;14.57;14.07;;;7.80;99.90;;;;;;5125297;27;20664;-62
2023/12/20 00:48:34;;;;;;;14.30;13.80;;;7.80;99.90;;;;;;5130433;27;20225;-63
2023/12/20 00:51:01;;;;;;;15.37;14.87;;;7.80;99.90;;;;;;5125806;27;20201;-63
2023/12/20 00:53:28;;;;;;;14.77;14.27;;;7.80;99.90;;;;;;5128092;27;20204;-63
2023/12/20 00:55:54;;;;;;;15.10;14.60;;;7.70;99.90;;;;;;5129385;27;20683;-62
2023/12/20 00:58:21;;;;;;;14.50;14.00;;;7.80;99.90;;;;;;5129446;27;20703;-63
2023/12/20 01:00:48;;;;;;;13.97;13.47;;;7.80;99.90;;;;;;5126993;27;20209;-64
2023/12/20 01:03:15;;;;;;;13.97;13.47;;;7.80;99.90;;;;;;5129335;27;20204;-64
2023/12/20 01:05:43;;;;;;;13.00;12.60;;;7.80;99.90;;;;;;5125616;27;20202;-62
2023/12/20 01:08:10;;;;;;;13.00;12.60;;;7.90;99.90;;;;;;5136744;27;20221;-62
2023/12/20 01:10:36;;;;;;;13.70;13.20;;;8.00;99.90;;;;;;5129982;27;20210;-62
2023/12/20 01:13:03;;;;;;;13.37;12.87;;;8.00;99.90;;;;;;5129045;27;20212;-62
2023/12/20 01:15:30;;;;;;;13.87;13.37;;;8.10;99.90;;;;;;5132211;27;20201;-64
2023/12/20 01:17:59;;;;;;;14.83;14.33;;;8.10;99.90;;;;;;5125115;27;20281;-64
2023/12/20 01:20:26;;;;;;;14.50;14.00;;;8.10;99.90;;;;;;5126245;27;20292;-63
2023/12/20 01:22:54;;;;;;;15.20;14.70;;;8.20;99.90;;;;;;5125627;27;20206;-63
2023/12/20 01:25:20;;;;;;;14.40;13.90;;;8.10;99.90;;;;;;5125263;27;20193;-63
2023/12/20 01:27:47;;;;;;;14.77;14.27;;;8.00;99.90;;;;;;5128106;27;20202;-63
2023/12/20 01:30:15;;;;;;;14.97;14.47;;;8.10;99.90;;;;;;5128215;27;20929;-63
2023/12/20 01:32:42;;;;;;;15.80;15.30;;;8.00;99.90;;;;;;5115197;27;20202;-63
2023/12/20 01:35:09;;;;;;;15.97;15.43;;;7.90;99.90;;;;;;5131350;27;20208;-62
2023/12/20 01:37:35;;;;;;;16.37;15.77;;;7.90;99.90;;;;;;5124911;27;20213;-64
2023/12/20 01:40:04;;;;;;;16.03;15.47;;;7.90;99.90;;;;;;5122198;27;20229;-63
2023/12/20 01:42:31;;;;;;;15.27;14.77;;;7.90;99.90;;;;;;5130302;27;20380;-63
2023/12/20 01:44:58;;;;;;;16.30;15.70;;;7.90;99.90;;;;;;5121548;27;20205;-63
2023/12/20 01:47:26;;;;;;;16.00;15.40;;;7.80;99.90;;;;;;5111381;27;20261;-61
2023/12/20 01:49:54;;;;;;;15.17;14.67;;;7.70;99.90;;;;;;5111884;27;20226;-62
2023/12/20 01:52:21;;;;;;;16.10;15.50;;;7.80;99.90;;;;;;5127160;27;20209;-63
2023/12/20 01:54:48;;;;;;;15.40;14.90;;;7.80;99.90;;;;;;5116107;27;20198;-63
2023/12/20 01:57:17;;;;;;;15.10;14.60;;;7.80;99.90;;;;;;5119028;27;20224;-62
2023/12/20 01:59:45;;;;;;;15.17;14.67;;;7.80;99.90;;;;;;5116801;27;20225;-62
2023/12/20 02:02:13;;;;;;;15.80;15.30;;;7.90;99.90;;;;;;5122380;27;20212;-62
2023/12/20 02:04:39;;;;;;;14.90;14.40;;;7.90;99.90;;;;;;5114975;27;20202;-64
2023/12/20 02:07:08;;;;;;;15.73;15.23;;;7.90;99.90;;;;;;5117882;27;20206;-62
2023/12/20 02:09:34;;;;;;;15.23;14.73;;;7.90;99.90;;;;;;5118273;27;20236;-63
2023/12/20 02:12:01;;;;;;;15.70;15.20;;;7.90;99.90;;;;;;5117600;27;20213;-62
2023/12/20 02:14:29;;;;;;;15.60;15.10;;;7.90;99.90;;;;;;5120945;27;20201;-63
2023/12/20 02:16:56;;;;;;;16.23;15.63;;;7.90;99.90;;;;;;5116534;27;20696;-62
2023/12/20 02:19:23;;;;;;;16.57;15.97;;;7.90;99.90;;;;;;5108571;27;20225;-62
2023/12/20 02:21:51;;;;;;;15.13;14.63;;;7.90;99.90;;;;;;5108535;28;20214;-62
2023/12/20 02:24:18;;;;;;;15.20;14.70;;;7.90;99.90;;;;;;5109129;28;20228;-64
2023/12/20 02:26:45;;;;;;;15.03;14.53;;;7.90;99.90;;;;;;5111937;28;20242;-64
2023/12/20 02:29:11;;;;;;;15.33;14.83;;;8.00;99.90;;;;;;5110218;27;20222;-62
2023/12/20 02:31:37;;;;;;;15.20;14.70;;;8.00;99.90;;;;;;5110529;28;20683;-63
2023/12/20 02:34:04;;;;;;;14.93;14.43;;;8.00;99.90;;;;;;5111442;28;20213;-63
2023/12/20 02:36:31;;;;;;;15.57;15.07;;;8.00;99.90;;;;;;5112471;28;20209;-62
2023/12/20 02:38:59;;;;;;;15.20;14.70;;;8.00;99.90;;;;;;5111044;28;20218;-62
2023/12/20 02:41:26;;;;;;;14.70;14.20;;;8.00;99.90;;;;;;5111122;28;20214;-64
2023/12/20 02:43:53;;;;;;;15.63;15.13;;;8.00;99.90;;;;;;5111805;28;20609;-62
2023/12/20 02:46:20;;;;;;;14.90;14.40;;;8.00;99.90;;;;;;5111479;28;20214;-63
2023/12/20 02:48:47;;;;;;;15.37;14.87;;;8.00;99.90;;;;;;5111260;28;20232;-63
2023/12/20 02:51:13;;;;;;;16.30;15.70;;;8.00;99.90;;;;;;5110054;28;20660;-64
2023/12/20 02:53:40;;;;;;;15.32;14.82;;;8.00;99.90;;;;;;5114098;28;20213;-64
2023/12/20 02:56:08;;;;;;;15.23;14.73;;;8.00;99.90;;;;;;5112806;28;20228;-63
2023/12/20 02:58:35;;;;;;;15.30;14.80;;;8.00;99.90;;;;;;5111197;28;20244;-62
2023/12/20 03:01:01;;;;;;;14.53;14.03;;;8.10;99.90;;;;;;5108918;28;20202;-61
2023/12/20 03:03:28;;;;;;;14.93;14.43;;;8.00;99.90;;;;;;5111276;28;20206;-64
2023/12/20 03:05:55;;;;;;;14.30;13.80;;;8.10;99.90;;;;;;5111534;28;20208;-62
2023/12/20 03:08:22;;;;;;;15.33;14.83;;;8.00;99.90;;;;;;5111419;28;20222;-62
2023/12/20 03:10:48;;;;;;;15.10;14.60;;;8.00;99.90;;;;;;5109677;28;20678;-64
2023/12/20 03:13:16;;;;;;;14.70;14.20;;;8.10;99.90;;;;;;5110660;28;20209;-63
2023/12/20 03:15:43;;;;;;;14.90;14.40;;;8.10;99.90;;;;;;5111232;28;20217;-62
2023/12/20 03:18:10;;;;;;;14.67;14.17;;;8.00;99.90;;;;;;5111209;28;20224;-62
2023/12/20 03:20:36;;;;;;;14.77;14.27;;;8.00;99.90;;;;;;5111118;28;20647;-64
2023/12/20 03:23:04;;;;;;;14.13;13.63;;;8.10;99.90;;;;;;5106692;28;20205;-63
2023/12/20 03:25:30;;;;;;;15.07;14.57;;;8.10;99.90;;;;;;5111013;27;20213;-64
2023/12/20 03:27:57;;;;;;;14.40;13.90;;;8.10;99.90;;;;;;5111834;28;20201;-63
2023/12/20 03:30:25;;;;;;;14.70;14.20;;;8.10;99.90;;;;;;5110902;28;20576;-63
2023/12/20 03:33:08;;;;;;;14.13;13.63;;;8.10;99.90;;;;;;5108968;28;20206;-62
2023/12/20 03:35:34;;;;;;;13.33;12.83;;;8.10;99.90;;;;;;5107909;28;20731;-64
2023/12/20 03:38:01;;;;;;;14.50;14.00;;;8.10;99.90;;;;;;5110493;28;20226;-63
2023/12/20 03:40:28;;;;;;;14.53;14.03;;;8.10;99.90;;;;;;5109630;28;20202;-61
2023/12/20 03:42:54;;;;;;;14.63;14.13;;;8.10;99.90;;;;;;5108833;28;20590;-63
2023/12/20 03:45:21;;;;;;;14.47;13.97;;;8.10;99.90;;;;;;5108421;28;20202;-62
2023/12/20 03:47:49;;;;;;;14.27;13.77;;;8.00;99.90;;;;;;5110813;28;20214;-62
2023/12/20 03:50:16;;;;;;;15.43;14.93;;;8.10;99.90;;;;;;5109965;28;20198;-62
2023/12/20 03:52:43;;;;;;;15.07;14.57;;;8.10;99.90;;;;;;5110281;28;20206;-66
2023/12/20 03:55:10;;;;;;;14.73;14.23;;;8.10;99.90;;;;;;5107954;28;20201;-64
2023/12/20 03:57:36;;;;;;;14.73;14.23;;;8.10;99.90;;;;;;5110335;28;20250;-64
2023/12/20 04:00:05;;;;;;;14.27;13.77;;;8.10;99.90;;;;;;5109320;28;20230;-62
2023/12/20 04:02:32;;;;;;;14.67;14.17;;;8.10;99.90;;;;;;5109585;28;20202;-63
2023/12/20 04:05:00;;;;;;;13.80;13.30;;;8.10;99.90;;;;;;5109698;28;20210;-64
2023/12/20 04:07:26;;;;;;;14.50;14.00;;;8.20;99.90;;;;;;5110511;28;20198;-62
2023/12/20 04:09:53;;;;;;;13.90;13.40;;;8.20;99.90;;;;;;5109492;28;20271;-63
2023/12/20 04:12:20;;;;;;;13.50;13.00;;;8.20;99.90;;;;;;5109796;28;20588;-63
2023/12/20 04:14:46;;;;;;;14.23;13.73;;;8.20;99.90;;;;;;5109671;28;20209;-63
2023/12/20 04:17:15;;;;;;;15.50;15.00;;;8.20;99.90;;;;;;5110291;28;20668;-64
2023/12/20 04:19:42;;;;;;;14.63;14.13;;;8.20;99.90;;;;;;5107107;28;20313;-62
2023/12/20 04:22:10;;;;;;;15.30;14.80;;;8.10;99.90;;;;;;5109847;28;20205;-63
2023/12/20 04:24:37;;;;;;;14.80;14.30;;;8.10;99.90;;;;;;5110505;28;20198;-63
2023/12/20 04:27:04;;;;;;;15.30;14.80;;;8.10;99.90;;;;;;5109815;28;20209;-63
2023/12/20 04:29:31;;;;;;;15.50;15.00;;;8.10;99.90;;;;;;5108619;28;20218;-63
2023/12/20 04:31:58;;;;;;;15.27;14.77;;;8.10;99.90;;;;;;5109269;28;20202;-62
2023/12/20 04:34:24;;;;;;;14.40;13.90;;;8.00;99.90;;;;;;5110296;28;20198;-63
2023/12/20 04:36:51;;;;;;;15.07;14.57;;;8.10;99.90;;;;;;5105992;28;20205;-64
2023/12/20 04:39:19;;;;;;;15.23;14.73;;;8.10;99.90;;;;;;5114488;28;20229;-63
2023/12/20 04:41:47;;;;;;;15.18;14.68;;;8.10;99.90;;;;;;5117533;28;20201;-62
2023/12/20 04:44:14;;;;;;;14.90;14.40;;;8.10;99.90;;;;;;5111853;28;20228;-64
2023/12/20 04:46:41;;;;;;;14.57;14.07;;;8.10;99.90;;;;;;5109838;28;20202;-62
2023/12/20 04:49:08;;;;;;;14.70;14.20;;;8.20;99.90;;;;;;5110018;28;20222;-61
2023/12/20 04:51:34;;;;;;;15.23;14.73;;;8.20;99.90;;;;;;5109655;28;20574;-64
2023/12/20 04:54:01;;;;;;;15.17;14.67;;;8.10;99.90;;;;;;5109659;28;20210;-62
2023/12/20 04:56:29;;;;;;;15.17;14.67;;;8.10;99.90;;;;;;5115038;28;20280;-64
2023/12/20 04:58:56;;;;;;;15.50;15.00;;;8.10;99.90;;;;;;5114292;27;20605;-63
2023/12/20 05:01:23;;;;;;;15.80;15.23;;;8.10;99.90;;;;;;5114394;28;20209;-63
2023/12/20 05:03:49;;;;;;;15.37;14.87;;;8.10;99.90;;;;;;5115471;27;20205;-62
2023/12/20 05:06:16;;;;;;;14.87;14.37;;;8.10;99.90;;;;;;5114860;28;20202;-63
2023/12/20 05:08:43;;;;;;;15.03;14.53;;;8.10;99.90;;;;;;5113904;27;20246;-63
2023/12/20 05:11:09;;;;;;;15.60;15.03;;;8.10;99.90;;;;;;5112980;28;20224;-64
2023/12/20 05:13:37;;;;;;;13.87;13.37;;;8.10;99.90;;;;;;5111345;27;20253;-64
2023/12/20 05:16:05;;;;;;;15.23;14.73;;;8.10;99.90;;;;;;5112394;28;20205;-63
2023/12/20 05:18:32;;;;;;;14.13;13.63;;;8.00;99.90;;;;;;5115426;27;20226;-62
2023/12/20 05:20:59;;;;;;;14.47;13.97;;;8.10;99.90;;;;;;5126888;27;20206;-62
2023/12/20 05:23:25;;;;;;;13.47;13.00;;;8.10;99.90;;;;;;5117609;28;20218;-62
2023/12/20 05:25:52;;;;;;;14.20;13.70;;;8.10;99.90;;;;;;5126228;28;20198;-64
2023/12/20 05:28:19;;;;;;;14.00;13.50;;;8.20;99.90;;;;;;5122550;28;20249;-63
2023/12/20 05:30:47;;;;;;;12.63;12.23;;;8.20;99.90;;;;;;5120225;28;20690;-63
2023/12/20 05:33:13;;;;;;;12.60;12.20;;;8.20;99.90;;;;;;5113131;28;20580;-64
2023/12/20 05:35:40;;;;;;;12.70;12.30;;;8.20;99.90;;;;;;5122961;27;20205;-63
2023/12/20 05:38:07;;;;;;;13.37;12.90;;;8.30;99.90;;;;;;5120354;27;20245;-63
2023/12/20 05:40:34;;;;;;;13.27;12.87;;;8.30;99.90;;;;;;5122714;27;20206;-63
2023/12/20 05:43:00;;;;;;;13.10;12.70;;;8.30;99.90;;;;;;5117521;27;20202;-63
2023/12/20 05:45:27;;;;;;;13.33;12.90;;;8.40;99.90;;;;;;5125690;27;20651;-62
2023/12/20 05:47:55;;;;;;;14.67;14.17;;;8.40;99.90;;;;;;5119100;27;20190;-63
2023/12/20 05:50:22;;;;;;;13.97;13.47;;;8.40;99.90;;;;;;5123616;27;20209;-63
2023/12/20 05:52:48;;;;;;;13.53;13.03;;;8.40;99.90;;;;;;5123770;27;20198;-62
2023/12/20 05:55:15;;;;;;;13.67;13.20;;;8.40;99.90;;;;;;5123323;27;20212;-61
2023/12/20 05:57:43;;;;;;;14.50;14.00;;;8.40;99.90;;;;;;5120740;27;20822;-63
2023/12/20 06:00:11;;;;;;;14.20;13.70;;;8.40;99.90;;;;;;5121156;27;20581;-63
2023/12/20 06:02:37;;;;;;;14.63;14.13;;;8.30;99.90;;;;;;5121765;27;20197;-62
2023/12/20 06:05:07;;;;;;;21.80;21.00;;;8.30;99.90;;;;;;5122764;27;20530;-67
2023/12/20 06:07:34;;;;;;;17.67;16.97;;;8.20;99.90;;;;;;5118788;27;20213;-66
2023/12/20 06:10:01;;;;;;;15.60;15.10;;;8.20;99.90;;;;;;5115993;27;20703;-66
2023/12/20 06:12:28;;;;;;;15.47;14.97;;;8.20;99.90;;;;;;5111796;28;20209;-66
2023/12/20 06:14:55;;;;;;;15.57;15.03;;;8.10;99.90;;;;;;5117836;27;20209;-66
2023/12/20 06:17:22;;;;;;;15.73;15.23;;;8.10;99.90;;;;;;5108757;28;20206;-67
2023/12/20 06:19:48;;;;;;;15.43;14.93;;;8.10;99.90;;;;;;5108261;28;20225;-65
2023/12/20 06:22:17;;;;;;;15.43;14.93;;;8.00;99.90;;;;;;5113279;27;20534;-64
2023/12/20 06:24:43;;;;;;;15.73;15.20;;;8.00;99.90;;;;;;5112392;27;20206;-64
2023/12/20 06:27:10;;;;;;;16.33;15.73;;;8.00;99.90;;;;;;5115322;28;20214;-65
2023/12/20 06:29:37;;;;;;;16.13;15.53;;;8.00;99.90;;;;;;5118543;27;20218;-66
2023/12/20 06:32:04;;;;;;;15.07;14.57;;;8.00;99.90;;;;;;5108195;28;20216;-65
2023/12/20 06:34:31;;;;;;;15.70;15.20;;;8.00;99.90;;;;;;5111006;28;20206;-66
2023/12/20 06:36:58;;;;;;;17.33;16.63;;;8.00;99.90;;;;;;5108385;28;20234;-64
2023/12/20 06:39:26;;;;;;;16.83;16.23;;;8.10;99.90;;;;;;5107458;27;20226;-65
2023/12/20 06:41:53;;;;;;;15.40;14.90;;;8.00;99.90;;;;;;5112023;28;20213;-66
2023/12/20 06:44:19;;;;;;;15.80;15.27;;;8.00;99.90;;;;;;5109808;27;20197;-66
2023/12/20 06:46:46;;;;;;;15.17;14.67;;;8.00;99.90;;;;;;5111881;28;20220;-66
2023/12/20 06:49:13;;;;;;;16.52;15.93;;;8.00;99.90;;;;;;5108377;27;20810;-66
2023/12/20 06:51:39;;;;;;;15.53;15.00;;;8.00;99.90;;;;;;5108510;28;20209;-66
2023/12/20 06:54:06;;;;;;;15.53;15.03;;;8.00;99.90;;;;;;5105714;27;20223;-65
2023/12/20 06:56:34;;;;;;;15.67;15.17;;;8.00;99.90;;;;;;5105566;28;20220;-65
2023/12/20 06:59:01;;;;;;;15.93;15.37;;;8.00;99.90;;;;;;5111369;27;20225;-66
2023/12/20 07:01:28;;;;;;;17.23;16.63;;;7.90;99.90;;;;;;5103373;28;20209;-66
2023/12/20 07:03:55;;;;;;;15.10;14.60;;;8.00;99.90;;;;;;5106365;28;20660;-65
2023/12/20 07:06:21;;;;;;;15.90;15.30;;;8.10;99.90;;;;;;5109626;27;20202;-67
2023/12/20 07:08:48;;;;;;;14.93;14.43;;;8.10;99.90;;;;;;5108430;28;20218;-66
2023/12/20 07:11:15;;;;;;;16.67;16.07;;;8.10;99.90;;;;;;5107674;28;20615;-66
2023/12/20 07:13:43;;;;;;;15.90;15.30;;;8.10;99.90;;;;;;5103093;28;20213;-65
2023/12/20 07:16:10;;;;;;;16.67;16.00;;;8.10;99.90;;;;;;5107173;28;20577;-65
2023/12/20 07:18:36;;;;;;;16.13;15.53;;;8.00;99.90;;;;;;5107377;28;20702;-66
2023/12/20 07:21:04;;;;;;;16.30;15.77;;;8.00;99.90;;;;;;5109507;27;20212;-65
2023/12/20 07:23:30;;;;;;;16.77;16.17;;;7.80;99.90;;;;;;5111989;27;20212;-63
2023/12/20 07:25:57;;;;;;;16.17;15.60;;;7.80;99.90;;;;;;5107384;28;20261;-64
2023/12/20 07:28:24;;;;;;;16.87;16.27;;;7.80;99.90;;;;;;5117581;27;20221;-65
2023/12/20 07:30:52;;;;;;;16.70;16.10;;;7.70;99.90;;;;;;5115919;27;20216;-65
2023/12/20 07:33:19;;;;;;;16.10;15.57;;;7.70;99.90;;;;;;5110298;27;20651;-65
2023/12/20 07:35:46;;;;;;;17.25;16.65;;;7.70;99.90;;;;;;5114680;28;20206;-66
2023/12/20 07:38:13;;;;;;;17.00;16.40;;;7.70;99.90;;;;;;5125883;27;20221;-63
2023/12/20 07:40:39;;;;;;;16.13;15.53;;;7.70;99.90;;;;;;5119681;28;20231;-66
2023/12/20 07:43:06;;;;;;;16.50;15.90;;;7.70;99.90;;;;;;5112277;28;20691;-65
2023/12/20 07:45:33;;;;;;;16.97;16.37;;;7.70;99.90;;;;;;5112293;28;20668;-63
2023/12/20 07:48:01;;;;;;;18.60;17.93;;;7.70;99.90;;;;;;5104402;28;20217;-65
2023/12/20 07:50:28;;;;;;;17.33;16.73;;;7.70;99.90;;;;;;5113629;28;20197;-63
2023/12/20 07:52:55;;;;;;;19.33;18.63;;;7.80;99.90;;;;;;5110258;28;20205;-63
2023/12/20 07:55:22;;;;;;;17.97;17.37;;;7.80;99.90;;;;;;5109561;28;20266;-62
2023/12/20 07:57:49;;;;;;;19.00;18.30;;;7.70;99.90;;;;;;5108558;28;20209;-64
2023/12/20 08:00:16;;;;;;;17.13;16.53;;;7.70;99.90;;;;;;5112097;28;20702;-64
2023/12/20 08:02:43;;;;;;;16.37;15.77;;;7.60;99.90;;;;;;5119296;27;20244;-64
2023/12/20 08:05:12;;;;;;;17.50;16.80;;;7.60;99.90;;;;;;5122311;27;20305;-66
2023/12/20 08:07:38;;;;;;;16.50;15.90;;;7.50;99.90;;;;;;5121289;27;20202;-65
2023/12/20 08:10:06;;;;;;;17.13;16.53;;;7.50;99.90;;;;;;5109093;28;20250;-65
2023/12/20 08:12:33;;;;;;;16.10;15.50;;;7.50;99.90;;;;;;5116750;28;20214;-66
2023/12/20 08:15:00;;;;;;;15.80;15.27;;;7.50;99.90;;;;;;5117595;28;20606;-67
2023/12/20 08:17:27;;;;;;;14.97;14.47;;;7.50;99.90;;;;;;5119112;27;20220;-67
2023/12/20 08:19:53;;;;;;;16.27;15.67;;;7.40;99.90;;;;;;5111054;28;20241;-67
2023/12/20 08:22:21;;;;;;;15.13;14.63;;;7.40;99.90;;;;;;5113210;28;20218;-67
2023/12/20 08:24:48;;;;;;;15.73;15.17;;;7.40;99.90;;;;;;5112014;28;20656;-66
2023/12/20 08:27:15;;;;;;;16.17;15.57;;;7.50;99.90;;;;;;5122606;28;20237;-64
2023/12/20 08:29:41;;;;;;;15.23;14.63;;;7.40;99.90;;;;;;5116063;28;20419;-67
2023/12/20 08:32:08;;;;;;;15.20;14.70;;;7.50;99.90;;;;;;5110914;28;20202;-65
2023/12/20 08:34:35;;;;;;;15.63;15.10;;;7.50;99.90;;;;;;5116333;27;20206;-67
2023/12/20 08:37:02;;;;;;;15.37;14.87;;;7.50;99.90;;;;;;5112086;28;20681;-66
2023/12/20 08:39:30;;;;;;;16.43;15.83;;;7.50;99.90;;;;;;5115255;27;20234;-67
2023/12/20 08:41:57;;;;;;;16.17;15.57;;;7.50;99.90;;;;;;5111169;28;20206;-66
2023/12/20 08:44:24;;;;;;;15.77;15.17;;;7.50;99.90;;;;;;5111175;27;20240;-67
2023/12/20 08:46:50;;;;;;;16.13;15.53;;;7.50;99.90;;;;;;5112370;28;20198;-68
2023/12/20 08:49:17;;;;;;;15.87;15.27;;;7.50;99.90;;;;;;5110180;27;20617;-66
2023/12/20 08:51:44;;;;;;;15.90;15.30;;;7.50;99.90;;;;;;5111325;27;20213;-68
2023/12/20 08:54:12;;;;;;;15.97;15.37;;;7.50;99.90;;;;;;5112649;27;20576;-66
2023/12/20 08:56:40;;;;;;;15.70;15.10;;;7.40;99.90;;;;;;5111293;28;20208;-67
2023/12/20 08:59:07;;;;;;;16.10;15.50;;;7.30;99.90;;;;;;5112851;27;20695;-65
2023/12/20 09:01:34;;;;;;;15.93;15.32;;;7.20;99.90;;;;;;5111548;27;20210;-64
2023/12/20 09:04:01;;;;;;;15.60;15.10;;;7.20;99.90;;;;;;5111078;27;20202;-65
2023/12/20 09:06:27;;;;;;;16.07;15.47;;;7.20;99.90;;;;;;5113771;27;20206;-67
2023/12/20 09:08:54;;;;;;;16.10;15.50;;;7.30;99.90;;;;;;5114128;27;20818;-67
2023/12/20 09:11:21;;;;;;;16.87;16.23;;;7.20;99.90;;;;;;5112649;27;20208;-67
2023/12/20 09:13:49;;;;;;;18.23;17.53;;;7.20;99.90;;;;;;5114716;27;20599;-66
2023/12/20 09:16:16;;;;;;;16.40;15.80;;;7.20;99.90;;;;;;5108613;28;20224;-67
2023/12/20 09:18:42;;;;;;;15.57;15.00;;;7.20;99.90;;;;;;5121132;27;20285;-66
2023/12/20 09:21:09;;;;;;;15.60;15.00;;;7.30;99.90;;;;;;5110967;28;20206;-65
2023/12/20 09:23:36;;;;;;;14.90;14.40;;;7.30;99.90;;;;;;5115264;27;20208;-66
2023/12/20 09:26:03;;;;;;;14.80;14.30;;;7.50;99.90;;;;;;5113677;27;20202;-65
2023/12/20 09:28:32;;;;;;;14.60;14.10;;;7.70;99.90;;;;;;5112357;27;20700;-66
2023/12/20 09:31:00;;;;;;;15.60;15.00;;;8.00;99.90;;;;;;5110765;28;20198;-66
2023/12/20 09:33:27;;;;;;;13.57;13.07;;;8.20;99.90;;;;;;5118845;27;20205;-67
2023/12/20 09:35:54;;;;;;;14.03;13.53;;;8.30;99.90;;;;;;5114981;28;20198;-67
2023/12/20 09:38:20;;;;;;;14.47;13.97;;;8.50;99.90;;;;;;5107943;28;20234;-65
2023/12/20 09:40:47;;;;;;;13.67;13.17;;;8.70;99.90;;;;;;5110707;28;20233;-65
2023/12/20 09:43:16;;;;;;;13.47;12.97;;;8.80;99.90;;;;;;5110522;27;20205;-65
2023/12/20 09:45:46;;;;;;;13.13;12.67;;;9.00;99.90;;;;;;5112544;27;20217;-64
2023/12/20 09:48:15;;;;;;;14.53;14.03;;;9.00;99.90;;;;;;5120646;27;20222;-63
2023/12/20 09:50:42;;;;;;;13.90;13.40;;;9.10;99.90;;;;;;5105290;28;20206;-64
2023/12/20 09:53:13;;;;;;;13.10;12.60;;;9.00;99.90;;;;;;5113475;27;20202;-65
2023/12/20 09:55:41;;;;;;;12.73;12.27;;;8.80;99.90;;;;;;5116257;27;20205;-65
2023/12/20 09:58:08;;;;;;;13.20;12.70;;;8.70;99.90;;;;;;5113925;28;20289;-64
2023/12/20 10:00:35;;;;;;;12.33;11.93;;;8.60;99.90;;;;;;5121238;27;20217;-64
2023/12/20 10:03:02;;;;;;;12.77;12.27;;;8.50;99.90;;;;;;5127124;28;20209;-66
2023/12/20 10:05:31;;;;;;;11.90;11.50;;;8.50;99.90;;;;;;5132311;27;20190;-64
2023/12/20 10:07:59;;;;;;;11.67;11.27;;;8.40;99.90;;;;;;5123075;28;20198;-65
2023/12/20 10:10:26;;;;;;;12.30;11.80;;;8.50;99.90;;;;;;5124640;27;20232;-65
2023/12/20 10:13:03;;;;;;;11.73;11.27;;;8.60;99.90;;;;;;5118336;27;20289;-65
2023/12/20 10:15:30;;;;;;;12.57;11.97;;;8.60;99.90;;;;;;5120213;28;20202;-66
2023/12/20 10:17:57;;;;;;;11.00;10.60;;;8.60;99.90;;;;;;5125775;28;20637;-65
2023/12/20 10:20:24;;;;;;;11.50;11.10;;;8.80;99.90;;;;;;5124832;28;20230;-65
2023/12/20 10:22:54;;;;;;;11.57;11.17;;;9.00;99.90;;;;;;5127735;28;20208;-65
2023/12/20 10:25:21;;;;;;;12.77;12.27;;;9.10;99.90;;;;;;5125696;28;20255;-65
2023/12/20 10:27:47;;;;;;;12.67;12.20;;;9.30;99.90;;;;;;5127869;28;20788;-65
2023/12/20 10:30:15;;;;;;;12.60;12.20;;;9.40;99.90;;;;;;5115925;28;20680;-64
2023/12/20 10:32:42;;;;;;;12.47;12.07;;;9.30;99.90;;;;;;5106966;27;20263;-64
2023/12/20 10:35:10;;;;;;;12.80;12.30;;;9.20;99.90;;;;;;5109164;28;20665;-65
2023/12/20 10:37:36;;;;;;;12.57;12.13;;;9.00;99.90;;;;;;5113265;27;20686;-65
2023/12/20 10:40:06;;;;;;;12.30;11.80;;;8.90;99.90;;;;;;5108982;27;20225;-64
2023/12/20 10:42:35;;;;;;;11.70;11.30;;;8.90;99.90;;;;;;5111207;28;20210;-64
2023/12/20 10:45:02;;;;;;;12.57;12.17;;;8.80;99.90;;;;;;5107766;28;20328;-65
2023/12/20 10:47:31;;;;;;;12.33;11.83;;;8.80;99.90;;;;;;5105908;28;20206;-64
2023/12/20 10:50:00;;;;;;;11.90;11.50;;;8.80;99.90;;;;;;5109709;28;20667;-66
2023/12/20 10:52:28;;;;;;;12.43;11.93;;;8.70;99.90;;;;;;5109597;28;20203;-64
2023/12/20 10:54:55;;;;;;;11.37;10.97;;;8.70;99.90;;;;;;5116277;28;20206;-66
2023/12/20 10:57:23;;;;;;;12.33;11.83;;;8.70;99.90;;;;;;5108478;28;20645;-64
2023/12/20 10:59:54;;;;;;;11.60;11.20;;;8.60;99.90;;;;;;5113358;27;20221;-65
2023/12/20 11:02:22;;;;;;;11.57;11.17;;;8.70;99.90;;;;;;5106471;27;20209;-65
2023/12/20 11:04:56;;;;;;;11.93;11.53;;;8.80;99.90;;;;;;5110103;28;20230;-65
2023/12/20 11:07:30;;;;;;;11.57;11.17;;;8.60;99.90;;;;;;5110233;27;20205;-64
2023/12/20 11:10:01;;;;;;;11.73;11.23;;;8.60;99.90;;;;;;5111565;28;20235;-65
2023/12/20 11:12:37;;;;;;;11.80;11.40;;;8.60;99.90;;;;;;5108606;28;20549;-65
2023/12/20 11:15:05;;;;;;;12.43;11.93;;;8.60;99.90;;;;;;5106779;28;20239;-64
2023/12/20 11:17:33;;;;;;;11.73;11.33;;;8.60;99.90;;;;;;5111944;28;20210;-63
2023/12/20 11:20:10;;;;;;;11.63;11.23;;;8.60;99.90;;;;;;5107603;28;20226;-64
2023/12/20 11:22:38;;;;;;;12.33;11.83;;;8.60;99.90;;;;;;5112781;28;20201;-65
2023/12/20 11:25:08;;;;;;;12.37;11.87;;;8.60;99.90;;;;;;5113118;27;20225;-64
2023/12/20 11:27:36;;;;;;;13.10;12.60;;;8.60;99.90;;;;;;5112253;27;20720;-66
2023/12/20 11:30:06;;;;;;;11.60;11.20;;;8.60;99.90;;;;;;5113313;27;20232;-64
2023/12/20 11:32:35;;;;;;;12.07;11.67;;;8.70;99.90;;;;;;5114584;27;20200;-65
2023/12/20 11:35:18;;;;;;;12.60;12.10;;;8.80;99.90;;;;;;5116106;27;20202;-65
2023/12/20 11:37:47;;;;;;;13.23;12.73;;;8.80;99.90;;;;;;5111475;28;20206;-65
2023/12/20 11:40:16;;;;;;;12.30;11.80;;;8.80;99.90;;;;;;5114379;27;20221;-66
2023/12/20 11:42:45;;;;;;;12.37;11.97;;;8.80;99.90;;;;;;5111932;28;20201;-65
2023/12/20 11:45:15;;;;;;;13.07;12.57;;;8.80;99.90;;;;;;5109584;27;20201;-66
2023/12/20 11:47:43;;;;;;;12.97;12.47;;;8.80;99.90;;;;;;5112580;28;20190;-64
2023/12/20 11:50:10;;;;;;;12.30;11.90;;;8.80;99.90;;;;;;5116765;28;20214;-64
2023/12/20 11:52:37;;;;;;;12.20;11.70;;;8.80;99.90;;;;;;5114000;28;20209;-65
2023/12/20 11:55:04;;;;;;;12.40;11.90;;;8.80;99.90;;;;;;5114592;28;20210;-66
2023/12/20 11:57:31;;;;;;;12.03;11.60;;;8.80;99.90;;;;;;5112984;28;20205;-65
2023/12/20 11:59:59;;;;;;;12.50;12.03;;;8.80;99.90;;;;;;5124537;28;20695;-64
2023/12/20 12:02:26;;;;;;;13.13;12.63;;;8.80;99.90;;;;;;5115641;28;20209;-65
2023/12/20 12:04:53;;;;;;;12.80;12.30;;;8.80;99.90;;;;;;5126769;27;20209;-66
2023/12/20 12:07:20;;;;;;;12.83;12.33;;;8.80;99.90;;;;;;5121591;27;20194;-65
2023/12/20 12:09:47;;;;;;;13.40;12.90;;;8.80;99.90;;;;;;5128158;27;20725;-65
2023/12/20 12:12:14;;;;;;;12.40;12.00;;;8.80;99.90;;;;;;5127845;27;20296;-65
2023/12/20 12:14:41;;;;;;;12.20;11.70;;;8.80;99.90;;;;;;5127706;27;20201;-66
2023/12/20 12:17:12;;;;;;;12.60;12.10;;;8.90;99.90;;;;;;5128710;27;20253;-64
2023/12/20 12:19:39;;;;;;;12.57;12.17;;;8.80;99.90;;;;;;5119693;27;20216;-66
2023/12/20 12:22:08;;;;;;;14.30;13.70;;;8.80;99.90;;;;;;5127556;27;20209;-64
2023/12/20 12:24:35;;;;;;;12.40;11.90;;;8.70;99.90;;;;;;5130117;27;20928;-64
2023/12/20 12:27:01;;;;;;;11.67;11.27;;;8.80;99.90;;;;;;5114015;27;20205;-64
2023/12/20 12:29:28;;;;;;;12.47;12.07;;;8.80;99.90;;;;;;5114809;27;20213;-64
2023/12/20 12:31:55;;;;;;;12.90;12.40;;;8.80;99.90;;;;;;5117184;27;20202;-65
2023/12/20 12:34:24;;;;;;;12.73;12.23;;;8.80;99.90;;;;;;5123444;27;20205;-66
2023/12/20 12:36:51;;;;;;;13.33;12.83;;;8.80;99.90;;;;;;5121320;27;20202;-66